Time;durP1;ratioP1;P1;durP2;ratioP2;P2;SDS_P1;SDS_P2;PMS_P1;PMS_P2;Temp;Humidity;BMP_temperature;BMP_pressure;BME280_temperature;BME280_humidity;BME280_pressure;Samples;Min_cycle;Max_cycle;Signal;HPM_P1;HPM_P2
2024/04/03 00:00:05;;;;;;;123.65;57.45;;;256.90;2252.80;;;;;;5048790;28;20017;-71
2024/04/03 00:02:31;;;;;;;82.07;40.20;;;256.90;2252.80;;;;;;5048973;28;20467;-70
2024/04/03 00:04:57;;;;;;;50.25;29.23;;;256.90;2252.80;;;;;;5048984;28;20044;-72
2024/04/03 00:07:23;;;;;;;61.03;34.95;;;256.90;2252.80;;;;;;5049272;28;20032;-74
2024/04/03 00:09:49;;;;;;;50.17;28.27;;;256.90;2252.80;;;;;;5048757;28;20086;-74
2024/04/03 00:12:14;;;;;;;38.63;20.90;;;256.90;2252.80;;;;;;5048708;28;20119;-71
2024/04/03 00:14:40;;;;;;;48.25;27.77;;;256.90;2252.80;;;;;;5048999;28;20027;-70
2024/04/03 00:17:06;;;;;;;24.13;12.90;;;256.90;2252.80;;;;;;5048925;28;20471;-73
2024/04/03 00:19:33;;;;;;;11.77;6.57;;;256.80;2252.80;;;;;;5049070;28;20020;-70
2024/04/03 00:21:59;;;;;;;10.40;5.88;;;256.90;2252.80;;;;;;5048750;28;20021;-74
2024/04/03 00:24:25;;;;;;;9.43;4.97;;;256.60;2252.80;;;;;;5048560;28;20475;-70
2024/04/03 00:26:51;;;;;;;10.00;6.13;;;256.20;2252.80;;;;;;5048681;28;20044;-74
2024/04/03 00:29:17;;;;;;;20.70;10.85;;;256.30;2252.80;;;;;;5048710;28;20036;-72
2024/04/03 00:31:45;;;;;;;16.48;9.27;;;256.20;2252.80;;;;;;5049045;28;20108;-70
2024/04/03 00:34:11;;;;;;;29.05;15.77;;;256.10;2252.80;;;;;;5048738;28;20021;-72
2024/04/03 00:36:36;;;;;;;25.38;13.35;;;256.30;2252.80;;;;;;5049195;28;20021;-71
2024/04/03 00:39:02;;;;;;;14.48;8.70;;;256.30;2252.80;;;;;;5063842;28;20383;-72
2024/04/03 00:41:29;;;;;;;41.90;21.27;;;256.40;2252.80;;;;;;5048551;28;20045;-70
2024/04/03 00:43:55;;;;;;;7.88;4.50;;;256.50;2252.80;;;;;;5035540;28;20095;-71
2024/04/03 00:46:21;;;;;;;52.38;27.27;;;256.60;2252.80;;;;;;5048346;28;20328;-74
2024/04/03 00:48:48;;;;;;;27.33;14.60;;;256.60;2252.80;;;;;;5035107;28;20087;-69
2024/04/03 00:51:15;;;;;;;11.23;6.00;;;256.60;2252.80;;;;;;5048948;28;20497;-70
2024/04/03 00:53:41;;;;;;;24.38;14.02;;;256.50;2252.80;;;;;;5048378;28;20040;-73
2024/04/03 00:56:07;;;;;;;12.18;6.53;;;256.50;2252.80;;;;;;5048675;28;20357;-70
2024/04/03 00:58:34;;;;;;;5.93;3.15;;;256.50;2252.80;;;;;;5035562;28;20382;-70
2024/04/03 01:01:01;;;;;;;11.15;6.53;;;256.20;2252.80;;;;;;5047813;28;20375;-76
2024/04/03 01:03:26;;;;;;;7.63;5.03;;;256.20;2252.80;;;;;;5048676;28;20101;-70
2024/04/03 01:06:05;;;;;;;3.70;1.98;;;256.10;2252.80;;;;;;5048718;28;20108;-74
2024/04/03 01:08:32;;;;;;;4.38;2.53;;;256.10;2252.80;;;;;;5048474;28;20056;-74
2024/04/03 01:10:59;;;;;;;4.22;1.85;;;231.10;2252.80;;;;;;5048213;28;20043;-72
2024/04/03 01:13:27;;;;;;;4.10;1.67;;;231.00;2252.80;;;;;;5048441;28;20025;-72
2024/04/03 01:15:54;;;;;;;3.50;1.75;;;230.80;2252.80;;;;;;5048696;28;20075;-70
2024/04/03 01:18:20;;;;;;;2.85;1.35;;;230.70;2252.80;;;;;;5043342;28;20380;-74
2024/04/03 01:20:45;;;;;;;4.47;2.60;;;230.60;2252.80;;;;;;5048538;28;20036;-72
2024/04/03 01:23:11;;;;;;;4.10;2.35;;;230.70;2252.80;;;;;;5048277;28;20029;-75
2024/04/03 01:25:37;;;;;;;3.60;1.70;;;230.80;2252.80;;;;;;5051719;28;20463;-70
2024/04/03 01:28:03;;;;;;;4.53;2.20;;;230.90;2252.80;;;;;;5051813;28;20502;-72
2024/04/03 01:30:29;;;;;;;1.90;1.20;;;230.90;2252.80;;;;;;5051567;28;20017;-74
2024/04/03 01:32:55;;;;;;;5.72;2.63;;;230.90;2252.80;;;;;;5051956;28;20029;-72
2024/04/03 01:35:21;;;;;;;3.50;1.77;;;230.90;2252.80;;;;;;5038534;28;20017;-70
2024/04/03 01:37:47;;;;;;;4.55;2.03;;;230.90;2252.80;;;;;;5051796;28;20103;-70
2024/04/03 01:40:12;;;;;;;3.97;2.05;;;230.90;2252.80;;;;;;5038267;28;20032;-72
2024/04/03 01:42:38;;;;;;;5.53;2.10;;;230.80;2252.80;;;;;;5051420;28;20029;-70
2024/04/03 01:45:04;;;;;;;6.22;4.10;;;230.80;2252.80;;;;;;5051340;28;20021;-68
2024/04/03 01:47:30;;;;;;;6.22;4.00;;;230.80;2252.80;;;;;;5051452;28;20074;-73
2024/04/03 01:49:56;;;;;;;8.02;5.57;;;230.80;2252.80;;;;;;5051602;28;20394;-73
2024/04/03 01:52:22;;;;;;;4.38;2.33;;;230.70;2252.80;;;;;;5051666;28;20033;-72
2024/04/03 01:54:50;;;;;;;5.65;4.30;;;230.60;2252.80;;;;;;5051316;28;20364;-73
2024/04/03 01:57:16;;;;;;;4.60;3.10;;;230.60;2252.80;;;;;;5051611;28;20475;-69
2024/04/03 01:59:42;;;;;;;3.45;1.77;;;230.70;2252.80;;;;;;5051097;28;20025;-71
2024/04/03 02:02:08;;;;;;;4.80;2.50;;;230.80;2252.80;;;;;;5051221;28;20029;-72
2024/04/03 02:04:33;;;;;;;13.50;8.02;;;230.80;2252.80;;;;;;5050954;28;20025;-72
2024/04/03 02:06:59;;;;;;;6.25;2.40;;;230.60;2252.80;;;;;;5051270;28;20481;-71
2024/04/03 02:09:25;;;;;;;4.82;2.65;;;230.60;2252.80;;;;;;5051183;28;20048;-74
2024/04/03 02:11:51;;;;;;;7.28;3.97;;;230.60;2252.80;;;;;;5051207;28;20024;-72
2024/04/03 02:14:17;;;;;;;4.03;1.95;;;230.60;2252.80;;;;;;5050980;28;20442;-71
2024/04/03 02:16:46;;;;;;;3.88;1.85;;;230.60;2252.80;;;;;;5066273;28;20352;-73
2024/04/03 02:19:15;;;;;;;4.10;2.15;;;230.60;2252.80;;;;;;5050808;28;20082;-72
2024/04/03 02:21:41;;;;;;;4.15;1.80;;;230.50;2252.80;;;;;;5050964;28;20032;-70
2024/04/03 02:24:07;;;;;;;2.88;1.67;;;230.50;2252.80;;;;;;5051129;28;20018;-72
2024/04/03 02:26:32;;;;;;;4.15;1.73;;;230.40;2252.80;;;;;;5051122;28;20461;-72
2024/04/03 02:28:58;;;;;;;5.82;2.78;;;205.70;2252.80;;;;;;5049172;28;20443;-72
2024/04/03 02:31:24;;;;;;;5.40;2.38;;;205.70;2252.80;;;;;;5050700;28;20029;-72
2024/04/03 02:33:50;;;;;;;5.82;2.88;;;205.70;2252.80;;;;;;5050541;28;20025;-69
2024/04/03 02:36:16;;;;;;;10.02;5.32;;;205.60;2252.80;;;;;;5050196;28;20021;-71
2024/04/03 02:38:43;;;;;;;5.93;3.55;;;205.60;2252.80;;;;;;5050406;28;20029;-72
2024/04/03 02:41:08;;;;;;;7.60;2.83;;;205.50;2252.80;;;;;;5050417;28;20053;-72
2024/04/03 02:43:34;;;;;;;5.65;2.05;;;205.60;2252.80;;;;;;5050503;28;20119;-72
2024/04/03 02:46:00;;;;;;;6.25;2.80;;;205.50;2252.80;;;;;;5050357;28;20471;-73
2024/04/03 02:48:26;;;;;;;3.22;2.13;;;205.50;2252.80;;;;;;5050071;28;20044;-74
2024/04/03 02:51:04;;;;;;;6.43;4.00;;;205.50;2252.80;;;;;;5050799;28;20049;-71
2024/04/03 02:53:30;;;;;;;8.85;5.82;;;205.50;2252.80;;;;;;5037201;28;20025;-73
2024/04/03 02:56:04;;;;;;;15.68;8.38;;;205.50;2252.80;;;;;;5050251;28;20129;-69
2024/04/03 02:58:29;;;;;;;16.13;10.07;;;205.40;2252.80;;;;;;5065601;28;20497;-72
2024/04/03 03:01:02;;;;;;;9.43;6.70;;;205.30;2252.80;;;;;;5050385;28;20061;-73
2024/04/03 03:03:31;;;;;;;9.50;5.10;;;205.40;2252.80;;;;;;5037667;28;20327;-74
2024/04/03 03:06:01;;;;;;;3.58;1.88;;;205.50;2252.80;;;;;;5049899;28;20269;-69
2024/04/03 03:08:28;;;;;;;5.43;2.63;;;205.50;2252.80;;;;;;5049673;28;20040;-69
2024/04/03 03:10:55;;;;;;;8.40;3.65;;;205.50;2252.80;;;;;;5050154;28;20021;-74
2024/04/03 03:13:21;;;;;;;5.57;2.70;;;205.40;2252.80;;;;;;5050172;28;20074;-73
2024/04/03 03:15:51;;;;;;;3.20;2.15;;;205.30;2252.80;;;;;;5049660;28;20352;-73
2024/04/03 03:18:18;;;;;;;3.88;1.95;;;205.30;2252.80;;;;;;5049969;28;20052;-73
2024/04/03 03:20:48;;;;;;;5.07;2.28;;;205.40;2252.80;;;;;;5050155;28;20029;-72
2024/04/03 03:23:14;;;;;;;4.78;2.03;;;205.30;2252.80;;;;;;5050034;28;20025;-71
2024/04/03 03:25:41;;;;;;;3.80;2.00;;;205.30;2252.80;;;;;;5049805;28;20430;-74
2024/04/03 03:28:07;;;;;;;14.45;3.70;;;205.30;2252.80;;;;;;5049379;28;20048;-71
2024/04/03 03:30:33;;;;;;;6.60;2.90;;;205.30;2252.80;;;;;;5049790;28;20013;-73
2024/04/03 03:32:59;;;;;;;3.58;2.20;;;205.20;2252.80;;;;;;5049840;28;20037;-75
2024/04/03 03:35:24;;;;;;;3.53;1.42;;;205.30;2252.80;;;;;;5049797;28;20013;-72
2024/04/03 03:37:50;;;;;;;4.70;1.70;;;205.20;2252.80;;;;;;5049654;28;20029;-73
2024/04/03 03:40:18;;;;;;;9.15;4.00;;;205.20;2252.80;;;;;;5049586;28;20570;-72
2024/04/03 03:42:44;;;;;;;16.63;8.18;;;205.30;2252.80;;;;;;5049355;28;20025;-71
2024/04/03 03:45:14;;;;;;;4.32;2.92;;;205.40;2252.80;;;;;;5049359;28;20028;-72
2024/04/03 03:47:40;;;;;;;6.00;3.08;;;205.40;2252.80;;;;;;5048369;28;20017;-73
2024/04/03 03:52:50;;;;;;;15.10;8.02;;;205.30;2252.80;;;;;;5049238;28;20083;-74
2024/04/03 03:55:16;;;;;;;15.90;7.65;;;205.30;2252.80;;;;;;5049324;28;20025;-74
2024/04/03 03:57:42;;;;;;;5.40;2.55;;;205.30;2252.80;;;;;;5049128;28;20095;-72
2024/04/03 04:00:08;;;;;;;6.30;2.47;;;205.30;2252.80;;;;;;5049178;28;20056;-72
2024/04/03 04:02:34;;;;;;;9.85;5.13;;;205.30;2252.80;;;;;;5049429;28;20471;-72
2024/04/03 04:05:02;;;;;;;10.45;4.10;;;205.30;2252.80;;;;;;5048678;28;20071;-73
2024/04/03 04:07:28;;;;;;;11.10;4.68;;;205.30;2252.80;;;;;;5049246;28;20062;-70
2024/04/03 04:09:54;;;;;;;7.07;3.40;;;205.10;2252.80;;;;;;5047521;28;20546;-74
2024/04/03 04:12:20;;;;;;;4.07;2.47;;;205.20;2252.80;;;;;;5048866;28;20086;-73
2024/04/03 04:14:51;;;;;;;11.27;3.53;;;205.20;2252.80;;;;;;5049120;28;20113;-71
2024/04/03 04:17:19;;;;;;;5.55;3.33;;;205.50;2252.80;;;;;;5048909;28;20021;-71
2024/04/03 04:19:46;;;;;;;9.40;2.65;;;205.20;2252.80;;;;;;5049164;28;20025;-70
2024/04/03 04:22:12;;;;;;;6.03;3.67;;;205.50;2252.80;;;;;;5048701;28;20029;-76
2024/04/03 04:24:39;;;;;;;91.90;50.80;;;205.20;2252.80;;;;;;5048879;28;20429;-72
2024/04/03 04:27:08;;;;;;;335.67;180.43;;;205.30;2252.80;;;;;;5048743;28;20431;-73
2024/04/03 04:29:40;;;;;;;189.80;96.40;;;205.40;2252.80;;;;;;5048889;28;20037;-74
2024/04/03 04:32:09;;;;;;;117.30;56.65;;;205.30;2252.80;;;;;;5048949;28;20070;-74
2024/04/03 04:34:41;;;;;;;75.07;40.13;;;205.50;2252.80;;;;;;5049173;28;20048;-72
2024/04/03 04:37:08;;;;;;;25.92;13.88;;;205.50;2252.80;;;;;;5049339;28;20017;-70
2024/04/03 04:39:35;;;;;;;12.85;9.63;;;205.50;2252.80;;;;;;5048576;28;20049;-72
2024/04/03 04:42:01;;;;;;;8.68;4.57;;;205.60;2252.80;;;;;;5048634;28;20024;-74
2024/04/03 04:44:27;;;;;;;12.73;7.03;;;205.60;2252.80;;;;;;5049011;28;20025;-76
2024/04/03 04:46:54;;;;;;;13.93;10.10;;;205.60;2252.80;;;;;;5038650;28;20441;-73
2024/04/03 04:49:21;;;;;;;12.82;7.28;;;205.70;2252.80;;;;;;5049005;28;20083;-74
2024/04/03 04:51:47;;;;;;;15.27;8.80;;;230.50;2252.80;;;;;;5044753;28;20432;-72
2024/04/03 04:54:15;;;;;;;7.63;6.53;;;230.40;2252.80;;;;;;5047464;28;20025;-73
2024/04/03 04:56:41;;;;;;;14.35;5.18;;;230.50;2252.80;;;;;;5041516;28;20052;-71
2024/04/03 04:59:08;;;;;;;8.43;4.25;;;230.70;2252.80;;;;;;5049678;28;20052;-71
2024/04/03 05:01:38;;;;;;;5.20;3.20;;;230.70;2252.80;;;;;;5052437;28;20024;-69
2024/04/03 05:04:04;;;;;;;8.88;4.85;;;230.80;2252.80;;;;;;5052686;28;20097;-75
2024/04/03 05:06:31;;;;;;;9.75;5.40;;;230.90;2252.80;;;;;;5052401;28;20025;-75
2024/04/03 05:08:57;;;;;;;8.50;5.55;;;231.30;2252.80;;;;;;5052237;28;20113;-72
2024/04/03 05:11:23;;;;;;;7.43;4.38;;;256.40;2252.80;;;;;;5049610;28;20375;-74
2024/04/03 05:13:50;;;;;;;7.80;4.43;;;256.40;2252.80;;;;;;5052158;28;20108;-75
2024/04/03 05:16:21;;;;;;;9.02;5.07;;;256.90;2252.80;;;;;;5052354;28;20092;-73
2024/04/03 05:18:49;;;;;;;9.52;4.35;;;307.30;2304.00;;;;;;5052001;28;20503;-74
2024/04/03 05:21:17;;;;;;;8.98;4.90;;;332.80;2329.60;;;;;;5052220;28;20044;-73
2024/04/03 05:23:43;;;;;;;11.27;4.93;;;308.10;2304.00;;;;;;5052083;28;20025;-74
2024/04/03 05:26:14;;;;;;;10.60;7.18;;;332.80;2329.60;;;;;;5043170;28;20029;-73
2024/04/03 05:28:40;;;;;;;10.93;7.40;;;308.10;2304.00;;;;;;5034114;28;20475;-75
2024/04/03 05:31:08;;;;;;;16.90;7.20;;;308.10;2304.00;;;;;;5033185;28;20498;-72
2024/04/03 05:33:35;;;;;;;10.98;6.57;;;333.40;2329.60;;;;;;5035663;28;21235;-71
2024/04/03 05:36:03;;;;;;;10.13;5.55;;;333.10;2329.60;;;;;;5051507;28;20032;-73
2024/04/03 05:38:29;;;;;;;19.10;6.82;;;332.80;2329.60;;;;;;5043923;28;20021;-71
2024/04/03 05:40:55;;;;;;;9.05;6.50;;;333.10;2329.60;;;;;;5047696;28;20057;-70
2024/04/03 05:43:24;;;;;;;8.82;6.28;;;333.70;2329.60;;;;;;5051174;28;20021;-70
2024/04/03 05:45:53;;;;;;;10.07;7.05;;;384.10;2329.60;;;;;;5051323;28;20025;-73
2024/04/03 05:48:23;;;;;;;13.90;8.25;;;410.50;2150.40;;;;;;5051217;28;20120;-74
2024/04/03 05:51:04;;;;;;;13.68;8.15;;;410.10;2150.40;;;;;;5051212;28;20029;-75
2024/04/03 05:53:31;;;;;;;11.38;6.90;;;409.90;2176.00;;;;;;5051655;28;20430;-73
2024/04/03 05:55:59;;;;;;;9.95;5.63;;;384.90;2150.40;;;;;;5051349;28;20471;-72
2024/04/03 05:58:25;;;;;;;14.60;5.53;;;384.40;2201.60;;;;;;5051458;28;20467;-72
2024/04/03 06:00:53;;;;;;;9.05;4.57;;;384.40;2201.60;;;;;;5051157;28;20078;-73
2024/04/03 06:03:19;;;;;;;8.13;4.13;;;384.30;2201.60;;;;;;5051014;28;20104;-75
2024/04/03 06:05:46;;;;;;;10.52;5.10;;;410.20;2150.40;;;;;;5051003;28;20108;-78
2024/04/03 06:08:12;;;;;;;5.40;4.63;;;486.50;1945.60;;;;;;5051060;28;20036;-72
2024/04/03 06:10:38;;;;;;;10.10;5.15;;;538.40;1740.80;;;;;;5049950;28;20543;-75
2024/04/03 06:13:05;;;;;;;8.77;5.45;;;614.40;1587.20;;;;;;5048564;28;20117;-70
2024/04/03 06:15:34;;;;;;;7.88;4.65;;;615.30;1510.40;;;;;;5039534;28;20518;-74
2024/04/03 06:18:06;;;;;;;5.80;4.10;;;640.00;1459.20;;;;;;5033953;28;20021;-75
2024/04/03 06:20:32;;;;;;;7.20;4.53;;;640.30;1459.20;;;;;;5033096;28;20037;-75
2024/04/03 06:23:02;;;;;;;11.18;6.10;;;640.40;1433.60;;;;;;5047809;28;20378;-70
2024/04/03 06:25:28;;;;;;;15.60;7.85;;;665.70;1433.60;;;;;;5040603;28;20029;-72
2024/04/03 06:27:57;;;;;;;14.70;9.00;;;691.60;1382.40;;;;;;5050549;28;20382;-70
2024/04/03 06:30:23;;;;;;;16.23;10.05;;;717.00;1382.40;;;;;;5050378;28;20029;-70
2024/04/03 06:32:49;;;;;;;14.05;9.27;;;717.10;1331.20;;;;;;5050651;28;20021;-72
2024/04/03 06:35:15;;;;;;;16.83;10.80;;;666.40;1356.80;;;;;;5050612;28;20049;-77
2024/04/03 06:37:41;;;;;;;16.00;9.48;;;665.90;1382.40;;;;;;5050474;28;20061;-72
2024/04/03 06:40:10;;;;;;;11.30;7.50;;;640.30;1433.60;;;;;;5049902;28;20098;-71
2024/04/03 06:42:36;;;;;;;11.35;9.32;;;666.30;1356.80;;;;;;5049192;28;20029;-74
2024/04/03 06:45:03;;;;;;;9.77;7.78;;;716.80;1305.60;;;;;;5049138;28;20024;-71
2024/04/03 06:47:29;;;;;;;16.65;8.07;;;717.50;1305.60;;;;;;5050377;28;20506;-70
2024/04/03 06:49:56;;;;;;;7.80;6.38;;;743.10;1280.00;;;;;;5033799;28;20084;-72
2024/04/03 06:52:24;;;;;;;8.65;6.15;;;768.60;1228.80;;;;;;5032304;28;20068;-77
2024/04/03 06:54:56;;;;;;;13.27;7.78;;;768.90;1203.20;;;;;;5031524;28;20652;-72
2024/04/03 06:57:23;;;;;;;19.77;17.67;;;819.30;1177.60;;;;;;5031224;28;20022;-75
2024/04/03 06:59:48;;;;;;;13.00;10.60;;;844.80;1177.60;;;;;;5048470;28;20482;-71
2024/04/03 07:02:15;;;;;;;14.57;11.45;;;820.00;1152.00;;;;;;5049914;28;20065;-76
2024/04/03 07:04:41;;;;;;;13.63;11.70;;;819.60;1152.00;;;;;;5043894;28;20491;-70
2024/04/03 07:07:08;;;;;;;10.75;9.43;;;820.00;1152.00;;;;;;5033043;28;20475;-71
2024/04/03 07:09:35;;;;;;;9.95;7.70;;;845.40;1100.80;;;;;;5030468;28;20064;-75
2024/04/03 07:12:02;;;;;;;14.35;10.05;;;845.20;1100.80;;;;;;5032469;28;20018;-73
2024/04/03 07:14:28;;;;;;;11.65;9.77;;;845.10;1100.80;;;;;;5042149;28;20025;-78
2024/04/03 07:16:54;;;;;;;20.23;11.73;;;845.20;1100.80;;;;;;5032699;28;20028;-77
2024/04/03 07:19:20;;;;;;;19.58;15.90;;;845.10;1100.80;;;;;;5034476;28;20036;-81
2024/04/03 07:21:46;;;;;;;24.40;18.48;;;819.40;1126.40;;;;;;5033816;28;20032;-78
2024/04/03 07:24:15;;;;;;;24.15;18.98;;;819.90;1126.40;;;;;;5036004;28;20096;-79
2024/04/03 07:26:41;;;;;;;29.90;19.42;;;819.50;1126.40;;;;;;5034878;28;20025;-79
2024/04/03 07:29:12;;;;;;;29.85;20.52;;;844.80;1152.00;;;;;;5057170;28;20056;-78
2024/04/03 07:31:38;;;;;;;31.98;22.10;;;844.80;1152.00;;;;;;5030708;28;20033;-79
2024/04/03 07:34:09;;;;;;;26.45;19.90;;;794.50;1152.00;;;;;;5035477;28;20104;-80
2024/04/03 07:36:35;;;;;;;27.35;18.80;;;793.70;1203.20;;;;;;5058649;28;20021;-77
2024/04/03 07:39:02;;;;;;;21.80;17.50;;;768.10;1203.20;;;;;;5041413;28;20021;-78
2024/04/03 07:41:31;;;;;;;27.65;17.88;;;768.40;1203.20;;;;;;5049192;28;20021;-79
2024/04/03 07:43:56;;;;;;;24.92;17.98;;;793.80;1203.20;;;;;;5049895;28;20636;-78
2024/04/03 07:46:23;;;;;;;27.83;19.95;;;819.50;1177.60;;;;;;5047269;28;20036;-80
2024/04/03 07:48:49;;;;;;;23.98;15.23;;;743.30;1228.80;;;;;;5035190;28;20037;-79
2024/04/03 07:51:15;;;;;;;23.02;15.52;;;717.50;1280.00;;;;;;5040592;28;20426;-78
2024/04/03 07:53:42;;;;;;;27.25;15.95;;;691.60;1331.20;;;;;;5040830;28;20663;-79
2024/04/03 07:56:08;;;;;;;29.10;17.27;;;691.50;1356.80;;;;;;5049536;28;20032;-78
2024/04/03 07:58:35;;;;;;;25.63;15.88;;;717.10;1331.20;;;;;;5037047;28;20021;-79
2024/04/03 08:01:01;;;;;;;23.83;17.00;;;768.10;1280.00;;;;;;5048901;28;20375;-79
2024/04/03 08:03:28;;;;;;;28.77;17.63;;;;;;;;;;5047801;28;20032;-79
2024/04/03 08:05:55;;;;;;;24.42;15.32;;;;;;;;;;5049314;28;20052;-77
2024/04/03 08:08:22;;;;;;;20.00;15.10;;;;;;;;;;5048905;28;20036;-79
2024/04/03 08:10:48;;;;;;;19.02;15.75;;;768.70;1254.40;;;;;;5048769;28;20052;-79
2024/04/03 08:13:14;;;;;;;19.55;14.82;;;793.60;1254.40;;;;;;5042400;28;20111;-78
2024/04/03 08:15:40;;;;;;;22.60;15.75;;;793.70;1228.80;;;;;;5042155;28;20017;-79
2024/04/03 08:18:06;;;;;;;21.35;15.18;;;794.50;1203.20;;;;;;5048721;28;20392;-80
2024/04/03 08:20:32;;;;;;;19.50;15.27;;;794.30;1228.80;;;;;;5046136;28;20083;-80
2024/04/03 08:22:58;;;;;;;20.58;14.50;;;844.90;1177.60;;;;;;5047819;28;20028;-79
2024/04/03 08:25:24;;;;;;;17.45;13.73;;;819.20;1203.20;;;;;;5046270;28;20017;-78
2024/04/03 08:27:53;;;;;;;15.73;9.30;;;845.40;1177.60;;;;;;5046852;28;20037;-80
2024/04/03 08:30:20;;;;;;;14.00;8.90;;;845.30;1152.00;;;;;;5045096;28;20025;-79
2024/04/03 08:32:45;;;;;;;10.43;8.20;;;921.60;1100.80;;;;;;5046766;28;20052;-79
2024/04/03 08:35:11;;;;;;;10.73;6.80;;;871.30;1075.20;;;;;;5052004;28;20048;-79
2024/04/03 08:37:38;;;;;;;8.23;4.80;;;819.50;1126.40;;;;;;5043214;28;20364;-79
2024/04/03 08:40:05;;;;;;;13.13;6.90;;;768.50;1100.80;;;;;;5040969;28;20037;-77
2024/04/03 08:42:30;;;;;;;10.60;5.10;;;768.90;1100.80;;;;;;5046228;28;20047;-78
2024/04/03 08:44:57;;;;;;;8.48;5.10;;;768.10;1126.40;;;;;;5050491;28;20037;-80
2024/04/03 08:47:25;;;;;;;8.80;4.55;;;742.80;1177.60;;;;;;5051500;28;20024;-77
2024/04/03 08:49:50;;;;;;;8.10;3.35;;;691.60;1177.60;;;;;;5050207;28;20017;-79
2024/04/03 08:52:18;;;;;;;10.70;4.95;;;665.90;1203.20;;;;;;5035956;28;20357;-77
2024/04/03 08:54:45;;;;;;;9.45;4.85;;;665.70;1228.80;;;;;;5039672;28;20020;-80
2024/04/03 08:57:11;;;;;;;7.95;4.28;;;666.10;1228.80;;;;;;5052696;28;20031;-79
2024/04/03 08:59:40;;;;;;;4.57;3.22;;;665.70;1254.40;;;;;;5051966;28;20088;-78
2024/04/03 09:02:06;;;;;;;6.40;4.22;;;665.60;1254.40;;;;;;5051183;28;20021;-79
2024/04/03 09:04:33;;;;;;;6.85;3.28;;;665.70;1254.40;;;;;;5044177;28;20030;-78
2024/04/03 09:07:00;;;;;;;8.00;3.78;;;665.60;1280.00;;;;;;5047145;28;20644;-78
2024/04/03 09:09:27;;;;;;;7.65;3.90;;;640.70;1254.40;;;;;;5046360;28;20037;-79
2024/04/03 09:12:06;;;;;;;8.77;3.95;;;615.30;1280.00;;;;;;5051114;28;20029;-79
2024/04/03 09:14:34;;;;;;;9.50;4.70;;;615.30;1254.40;;;;;;5042944;28;20503;-78
2024/04/03 09:17:04;;;;;;;5.00;3.80;;;640.40;1254.40;;;;;;5056945;28;20365;-77
2024/04/03 09:19:32;;;;;;;4.95;3.50;;;614.80;1280.00;;;;;;5047467;28;20029;-77
2024/04/03 09:21:59;;;;;;;6.82;2.92;;;614.70;1280.00;;;;;;5047195;28;20163;-76
2024/04/03 09:24:25;;;;;;;5.72;2.72;;;615.00;1228.80;;;;;;5038669;28;20100;-79
2024/04/03 09:26:53;;;;;;;4.82;2.97;;;640.60;1228.80;;;;;;5051870;28;20028;-78
2024/04/03 09:29:19;;;;;;;4.38;2.95;;;640.40;1228.80;;;;;;5050992;28;20402;-78
2024/04/03 09:31:46;;;;;;;5.00;2.67;;;614.90;1254.40;;;;;;5047405;28;20062;-78
2024/04/03 09:34:13;;;;;;;5.45;2.65;;;589.40;1305.60;;;;;;5052174;28;20023;-77
2024/04/03 09:36:40;;;;;;;5.30;2.65;;;589.30;1305.60;;;;;;5052164;28;20028;-79
2024/04/03 09:39:09;;;;;;;5.05;3.15;;;614.90;1254.40;;;;;;5051858;28;20108;-76
2024/04/03 09:41:36;;;;;;;5.40;2.50;;;614.60;1254.40;;;;;;5052243;28;20036;-78
2024/04/03 09:44:07;;;;;;;6.82;3.72;;;614.80;1254.40;;;;;;5052025;28;20017;-79
2024/04/03 09:46:51;;;;;;;7.45;3.08;;;615.10;1228.80;;;;;;5051818;28;20021;-79
2024/04/03 09:49:23;;;;;;;5.18;2.80;;;589.70;1280.00;;;;;;5051902;28;20112;-78
2024/04/03 09:51:50;;;;;;;4.65;3.08;;;589.60;1305.60;;;;;;5051560;28;20481;-78
2024/04/03 09:54:17;;;;;;;4.88;2.22;;;614.70;1254.40;;;;;;5051873;28;20494;-78
2024/04/03 09:56:43;;;;;;;6.32;2.47;;;614.70;1254.40;;;;;;5051608;28;20033;-78
2024/04/03 09:59:12;;;;;;;4.20;2.38;;;614.70;1254.40;;;;;;5051611;28;20517;-77
2024/04/03 10:01:39;;;;;;;4.55;3.30;;;614.80;1305.60;;;;;;5051286;28;20021;-78
2024/04/03 10:04:07;;;;;;;5.13;2.70;;;614.80;1254.40;;;;;;5051629;28;20537;-78
2024/04/03 10:06:38;;;;;;;3.97;2.70;;;640.00;1254.40;;;;;;5051318;28;20029;-79
2024/04/03 10:09:15;;;;;;;5.03;2.42;;;640.30;1254.40;;;;;;5051036;28;20475;-78
2024/04/03 10:11:47;;;;;;;5.47;2.97;;;640.60;1254.40;;;;;;5051412;28;20095;-78
2024/04/03 10:14:25;;;;;;;7.35;3.13;;;640.10;1228.80;;;;;;5051220;28;20020;-78
2024/04/03 10:16:51;;;;;;;3.53;2.40;;;615.10;1254.40;;;;;;5051064;28;20090;-78
2024/04/03 10:19:21;;;;;;;6.57;3.05;;;615.00;1280.00;;;;;;5051182;28;20020;-77
2024/04/03 10:21:48;;;;;;;4.78;2.20;;;614.90;1254.40;;;;;;5051088;28;20052;-78
2024/04/03 10:24:14;;;;;;;8.52;2.60;;;615.00;1280.00;;;;;;5050885;28;20463;-79
2024/04/03 10:26:40;;;;;;;7.30;2.53;;;614.80;1280.00;;;;;;5050932;28;20021;-78
2024/04/03 10:29:06;;;;;;;4.22;2.35;;;614.60;1280.00;;;;;;5051115;28;20475;-78
2024/04/03 10:31:32;;;;;;;5.03;2.25;;;589.60;1305.60;;;;;;5051115;28;20033;-78
2024/04/03 10:33:58;;;;;;;7.28;2.33;;;589.50;1305.60;;;;;;5049160;28;20475;-78
2024/04/03 10:36:25;;;;;;;5.07;2.50;;;589.70;1356.80;;;;;;5051229;28;20025;-77
2024/04/03 10:38:50;;;;;;;4.07;2.20;;;589.70;1408.00;;;;;;5050517;28;20025;-78
2024/04/03 10:41:16;;;;;;;5.55;2.70;;;589.60;1356.80;;;;;;5036989;28;20052;-78
2024/04/03 10:43:43;;;;;;;7.43;2.38;;;589.60;1331.20;;;;;;5038964;28;20028;-78
2024/04/03 10:46:13;;;;;;;6.03;2.47;;;614.60;1331.20;;;;;;5035270;28;20018;-78
2024/04/03 10:48:42;;;;;;;9.68;3.85;;;589.60;1305.60;;;;;;5036176;28;20430;-78
2024/04/03 10:51:08;;;;;;;6.60;3.83;;;589.70;1305.60;;;;;;5049977;28;20103;-78
2024/04/03 10:53:37;;;;;;;5.95;2.75;;;589.70;1305.60;;;;;;5050887;28;20121;-77
2024/04/03 10:56:04;;;;;;;5.88;2.72;;;614.40;1331.20;;;;;;5050460;28;20021;-78
2024/04/03 10:58:30;;;;;;;6.25;2.20;;;589.60;1305.60;;;;;;5049268;28;20033;-77
2024/04/03 11:00:56;;;;;;;5.35;2.90;;;589.70;1356.80;;;;;;5049499;28;20027;-79
2024/04/03 11:03:23;;;;;;;7.00;2.55;;;588.90;1331.20;;;;;;5049172;28;20036;-79
2024/04/03 11:05:50;;;;;;;5.03;1.90;;;589.40;1331.20;;;;;;5050282;28;20025;-78
2024/04/03 11:08:16;;;;;;;5.18;2.28;;;589.70;1408.00;;;;;;5050016;28;20116;-78
2024/04/03 11:10:42;;;;;;;6.28;2.83;;;589.60;1356.80;;;;;;5050232;28;20017;-78
2024/04/03 11:13:11;;;;;;;9.63;2.30;;;589.10;1331.20;;;;;;5049706;28;20024;-78
2024/04/03 11:15:37;;;;;;;5.93;2.58;;;589.70;1331.20;;;;;;5050667;28;20025;-78
2024/04/03 11:18:04;;;;;;;7.30;2.60;;;589.60;1331.20;;;;;;5049790;28;20044;-79
2024/04/03 11:20:32;;;;;;;5.60;2.63;;;614.50;1382.40;;;;;;5050285;28;20029;-79
2024/04/03 11:23:01;;;;;;;5.35;2.40;;;589.50;1331.20;;;;;;5049693;28;20029;-78
2024/04/03 11:25:28;;;;;;;7.10;2.83;;;589.20;1331.20;;;;;;5049994;28;20021;-78
2024/04/03 11:27:59;;;;;;;4.55;2.60;;;589.70;1305.60;;;;;;5049985;28;20044;-78
2024/04/03 11:30:26;;;;;;;5.45;2.65;;;614.60;1280.00;;;;;;5049895;28;20383;-78
2024/04/03 11:32:52;;;;;;;4.43;2.13;;;614.90;1280.00;;;;;;5050074;28;20041;-78
2024/04/03 11:35:18;;;;;;;5.63;2.13;;;614.90;1254.40;;;;;;5049050;28;20056;-79
2024/04/03 11:37:44;;;;;;;3.90;2.20;;;589.60;1305.60;;;;;;5049798;28;20021;-78
2024/04/03 11:40:10;;;;;;;5.75;2.15;;;614.60;1305.60;;;;;;5049286;28;20045;-77
2024/04/03 11:42:36;;;;;;;5.90;2.58;;;589.50;1280.00;;;;;;5049752;28;20442;-78
2024/04/03 11:45:06;;;;;;;5.50;2.40;;;614.70;1280.00;;;;;;5049485;28;20060;-78
2024/04/03 11:47:33;;;;;;;7.35;4.20;;;614.90;1280.00;;;;;;5049693;28;20021;-78
2024/04/03 11:50:03;;;;;;;7.00;4.10;;;615.10;1254.40;;;;;;5049293;28;20033;-78
2024/04/03 11:52:29;;;;;;;8.15;3.13;;;615.20;1254.40;;;;;;5049304;28;20023;-79
2024/04/03 11:54:55;;;;;;;4.03;2.30;;;615.00;1280.00;;;;;;5049265;28;20025;-78
2024/04/03 11:57:21;;;;;;;6.18;2.15;;;615.00;1254.40;;;;;;5049339;28;20017;-76
2024/04/03 11:59:48;;;;;;;5.32;2.47;;;614.40;1305.60;;;;;;5049114;28;20437;-77
2024/04/03 12:02:14;;;;;;;4.72;2.13;;;589.70;1280.00;;;;;;5049398;28;20021;-77
2024/04/03 12:04:40;;;;;;;3.90;1.90;;;589.40;1305.60;;;;;;5039442;28;20032;-77
2024/04/03 12:07:07;;;;;;;5.13;1.80;;;589.40;1280.00;;;;;;5029372;28;20021;-77
2024/04/03 12:09:33;;;;;;;6.82;2.30;;;614.50;1254.40;;;;;;5045641;28;20111;-77
2024/04/03 12:11:59;;;;;;;5.72;2.65;;;614.90;1280.00;;;;;;5048631;28;20108;-78
2024/04/03 12:14:25;;;;;;;7.70;2.42;;;615.20;1254.40;;;;;;5033228;28;20017;-77